createdAt,value
2023-03-06T00:01:14.204Z,65.87
2023-03-06T00:05:11.088Z,66.09
2023-03-06T00:09:10.497Z,66.21
2023-03-06T00:13:13.572Z,66.21
2023-03-06T00:17:10.314Z,66.29
2023-03-06T00:21:10.223Z,66.41
2023-03-06T00:25:13.130Z,66.41
2023-03-06T00:29:10.287Z,66.55
2023-03-06T00:33:10.989Z,66.78
2023-03-06T00:37:10.272Z,67.04
2023-03-06T00:41:12.081Z,67.09
2023-03-06T00:45:11.273Z,67.04
2023-03-06T00:49:10.515Z,66.87
2023-03-06T00:53:12.261Z,66.94
2023-03-06T00:57:10.604Z,66.99
2023-03-06T01:01:11.032Z,66.89
2023-03-06T01:05:12.542Z,66.96
2023-03-06T01:09:10.379Z,66.96
2023-03-06T01:13:10.537Z,66.86
2023-03-06T01:17:10.510Z,66.80
2023-03-06T01:21:11.485Z,66.93
2023-03-06T01:25:10.816Z,66.93
2023-03-06T01:29:10.569Z,66.87
2023-03-06T01:33:10.537Z,66.68
2023-03-06T01:37:10.441Z,66.68
2023-03-06T01:41:14.629Z,66.59
2023-03-06T01:45:30.329Z,66.66
2023-03-06T01:49:14.288Z,66.65
2023-03-06T01:53:12.184Z,66.58
2023-03-06T01:57:13.720Z,66.79
2023-03-06T02:01:11.911Z,66.86
2023-03-06T02:05:11.047Z,66.94
2023-03-06T02:09:12.063Z,66.91
2023-03-06T02:13:10.574Z,67.09
2023-03-06T02:17:12.881Z,67.17
2023-03-06T02:21:19.168Z,67.25
2023-03-06T02:25:22.705Z,67.28
2023-03-06T02:29:10.907Z,67.42
2023-03-06T02:33:13.039Z,67.39
2023-03-06T02:37:10.602Z,67.52
2023-03-06T02:41:10.618Z,67.74
2023-03-06T02:57:11.314Z,67.86
2023-03-06T03:01:11.403Z,67.75
2023-03-06T03:09:10.802Z,67.68
2023-03-06T03:13:10.998Z,67.82
2023-03-06T03:17:10.692Z,67.79
2023-03-06T03:21:12.569Z,67.77
2023-03-06T03:25:10.942Z,67.83
2023-03-06T03:29:10.906Z,67.72
2023-03-06T03:33:11.940Z,67.65
2023-03-06T03:37:11.024Z,67.99
2023-03-06T03:41:11.162Z,68.08
2023-03-06T03:45:10.843Z,68.23
2023-03-06T03:49:11.160Z,68.34
2023-03-06T03:53:11.085Z,68.44
2023-03-06T03:57:10.857Z,68.47
2023-03-06T04:09:10.993Z,69.06
2023-03-06T04:13:10.916Z,69.00
2023-03-06T04:17:10.840Z,68.79
2023-03-06T04:25:11.104Z,68.97
2023-03-06T04:29:11.106Z,68.98
2023-03-06T04:33:10.958Z,68.97
2023-03-06T04:37:18.211Z,69.16
2023-03-06T04:41:10.991Z,69.26
2023-03-06T04:45:11.134Z,69.36
2023-03-06T04:53:11.119Z,69.44
2023-03-06T04:57:13.081Z,69.49
2023-03-06T05:01:11.594Z,69.35
2023-03-06T05:05:11.933Z,69.42
2023-03-06T05:09:11.149Z,69.43
2023-03-06T05:13:11.145Z,69.37
2023-03-06T05:21:11.523Z,69.44
2023-03-06T05:25:11.156Z,69.41
2023-03-06T05:29:11.120Z,69.44
2023-03-06T05:33:11.035Z,69.50
2023-03-06T05:37:11.166Z,69.60
2023-03-06T05:41:12.017Z,69.74
2023-03-06T05:45:11.448Z,69.82
2023-03-06T05:49:11.118Z,69.83
2023-03-06T05:57:11.214Z,70.04
2023-03-06T06:01:13.652Z,70.10
2023-03-06T06:05:13.137Z,70.11
2023-03-06T06:09:13.836Z,70.09
2023-03-06T06:13:11.469Z,70.06
2023-03-06T06:17:11.698Z,70.02
2023-03-06T06:21:13.574Z,70.03
2023-03-06T06:25:11.251Z,70.02
2023-03-06T06:29:12.596Z,69.87
2023-03-06T06:41:36.084Z,69.84
2023-03-06T06:45:11.929Z,69.89
2023-03-06T06:49:11.789Z,69.93
2023-03-06T07:01:12.730Z,69.85
2023-03-06T07:05:11.433Z,70.13
2023-03-06T07:13:11.431Z,70.25
2023-03-06T07:17:11.531Z,70.26
2023-03-06T07:21:11.994Z,70.41
2023-03-06T07:25:11.520Z,70.51
2023-03-06T07:29:11.528Z,70.50
2023-03-06T07:33:12.056Z,70.63
2023-03-06T07:37:11.516Z,70.67
2023-03-06T07:41:12.813Z,70.77
2023-03-06T07:45:12.250Z,70.91
2023-03-06T07:49:11.493Z,71.04
2023-03-06T07:53:11.674Z,71.08
2023-03-06T07:57:12.309Z,71.27
2023-03-06T08:01:13.797Z,71.10
2023-03-06T08:05:14.003Z,71.60
2023-03-06T08:09:11.658Z,71.75
2023-03-06T08:13:11.463Z,71.74
2023-03-06T08:17:11.928Z,71.85
2023-03-06T08:21:13.232Z,71.74
2023-03-06T08:25:12.461Z,72.13
2023-03-06T08:29:12.250Z,72.53
2023-03-06T08:33:11.626Z,72.20
2023-03-06T08:37:11.642Z,72.55
2023-03-06T08:41:12.099Z,72.59
2023-03-06T08:45:11.525Z,72.76
2023-03-06T08:49:12.503Z,72.82
2023-03-06T08:53:11.676Z,72.89
2023-03-06T08:57:11.731Z,72.48
2023-03-06T09:01:13.925Z,72.40
2023-03-06T09:05:12.021Z,72.40
2023-03-06T09:13:11.702Z,72.66
2023-03-06T09:17:11.760Z,72.77
2023-03-06T09:21:11.854Z,72.41
2023-03-06T09:25:12.820Z,72.57
2023-03-06T09:29:12.066Z,72.61
2023-03-06T09:33:11.716Z,72.86
2023-03-06T09:37:12.065Z,72.86
2023-03-06T09:41:21.058Z,72.94
2023-03-06T09:45:12.537Z,72.76
2023-03-06T09:49:31.638Z,72.86
2023-03-06T09:53:28.307Z,72.87
2023-03-06T09:57:19.222Z,72.92
2023-03-06T10:01:16.572Z,72.96
2023-03-06T10:05:18.656Z,72.89
2023-03-06T10:09:15.951Z,73.32
2023-03-06T10:13:17.616Z,73.23
2023-03-06T10:17:17.007Z,73.35
2023-03-06T10:21:26.119Z,73.09
2023-03-06T10:29:25.058Z,73.67
2023-03-06T10:33:21.534Z,73.66
2023-03-06T10:37:18.722Z,73.56
2023-03-06T10:41:22.755Z,73.14
2023-03-06T10:45:14.909Z,73.15
2023-03-06T10:49:24.968Z,73.28
2023-03-06T10:53:20.510Z,72.98
2023-03-06T10:57:24.938Z,72.43
2023-03-06T11:01:19.399Z,72.54
2023-03-06T11:05:19.067Z,72.32
2023-03-06T11:09:15.029Z,72.19
2023-03-06T11:13:21.513Z,72.35
2023-03-06T11:17:26.824Z,72.16
2023-03-06T11:21:23.607Z,72.14
2023-03-06T11:25:15.479Z,71.87
2023-03-06T11:29:23.663Z,71.46
2023-03-06T11:33:19.380Z,71.13
2023-03-06T11:37:23.905Z,70.84
2023-03-06T11:41:20.235Z,70.53
2023-03-06T11:45:24.163Z,70.24
2023-03-06T11:49:21.307Z,69.75
2023-03-06T11:53:15.399Z,69.61
2023-03-06T11:57:16.752Z,69.44
2023-03-06T12:01:21.512Z,68.97
2023-03-06T12:05:29.674Z,68.94
2023-03-06T12:09:24.289Z,68.67
2023-03-06T12:13:28.941Z,68.38
2023-03-06T12:17:18.355Z,68.17
2023-03-06T12:21:19.524Z,68.06
2023-03-06T12:25:21.342Z,68.03
2023-03-06T12:29:22.164Z,68.00
2023-03-06T12:37:24.366Z,67.78
2023-03-06T12:41:23.272Z,67.97
2023-03-06T12:45:26.557Z,67.84
2023-03-06T12:49:31.809Z,67.60
2023-03-06T12:53:18.124Z,67.49
2023-03-06T12:57:13.879Z,67.30
2023-03-06T13:01:18.968Z,67.07
2023-03-06T13:05:28.701Z,66.96
2023-03-06T13:09:19.209Z,66.49
2023-03-06T13:13:30.680Z,66.22
2023-03-06T13:17:24.243Z,66.00
2023-03-06T13:21:32.082Z,65.80
2023-03-06T13:25:32.460Z,65.47
2023-03-06T13:29:32.268Z,65.60
2023-03-06T13:33:33.328Z,65.56
2023-03-06T13:41:26.522Z,65.61
2023-03-06T13:45:15.774Z,65.50
2023-03-06T13:49:20.732Z,65.62
2023-03-06T13:53:32.158Z,65.63
2023-03-06T14:01:22.223Z,65.70
2023-03-06T14:05:14.515Z,66.17
2023-03-06T14:09:24.131Z,66.79
2023-03-06T14:13:17.945Z,67.32
2023-03-06T14:17:22.819Z,67.65
2023-03-06T14:21:14.922Z,67.91
2023-03-06T14:25:17.017Z,68.11
2023-03-06T14:29:21.707Z,68.40
2023-03-06T14:33:12.840Z,68.61
2023-03-06T14:37:21.681Z,68.66
2023-03-06T14:41:22.355Z,68.77
2023-03-06T14:45:15.357Z,68.90
2023-03-06T14:49:13.925Z,69.03
2023-03-06T14:53:15.716Z,69.29
2023-03-06T14:57:17.562Z,69.53
2023-03-06T15:01:14.368Z,69.84
2023-03-06T15:05:20.161Z,70.12
2023-03-06T15:09:16.868Z,70.25
2023-03-06T15:13:21.188Z,70.08
2023-03-06T15:17:19.743Z,70.33
2023-03-06T15:21:17.148Z,70.50
2023-03-06T15:25:20.074Z,70.52
2023-03-06T15:33:23.647Z,70.31
2023-03-06T15:37:26.135Z,69.79
2023-03-06T15:41:22.382Z,69.50
2023-03-06T15:45:15.622Z,69.19
2023-03-06T15:49:15.832Z,68.34
2023-03-06T15:53:12.848Z,67.92
2023-03-06T16:01:16.399Z,66.87
2023-03-06T16:05:14.669Z,66.87
2023-03-06T16:09:13.506Z,67.03
2023-03-06T16:13:15.404Z,66.91
2023-03-06T16:17:13.776Z,66.82
2023-03-06T16:21:13.213Z,66.55
2023-03-06T16:25:13.755Z,66.63
2023-03-06T16:29:15.781Z,66.61
2023-03-06T16:33:13.355Z,66.31
2023-03-06T16:37:13.154Z,66.13
2023-03-06T16:41:13.373Z,66.30
2023-03-06T16:45:13.792Z,66.31
2023-03-06T16:49:15.362Z,66.35
2023-03-06T16:53:13.395Z,66.32
2023-03-06T17:01:15.730Z,66.48
2023-03-06T17:05:13.392Z,66.53
2023-03-06T17:09:13.417Z,66.45
2023-03-06T17:13:13.131Z,66.43
2023-03-06T17:17:13.121Z,66.33
2023-03-06T17:21:14.562Z,66.30
2023-03-06T17:25:13.301Z,66.18
2023-03-06T17:29:13.216Z,66.18
2023-03-06T17:33:13.250Z,66.20
2023-03-06T17:37:13.053Z,65.95
2023-03-06T17:41:13.714Z,66.05
2023-03-06T17:45:13.163Z,65.93
2023-03-06T17:49:13.218Z,65.61
2023-03-06T17:53:13.431Z,65.32
2023-03-06T17:57:13.290Z,64.97
2023-03-06T18:01:15.073Z,64.76
2023-03-06T18:05:13.442Z,64.64
2023-03-06T18:09:13.110Z,64.69
2023-03-06T18:13:13.267Z,64.91
2023-03-06T18:17:13.380Z,65.21
2023-03-06T18:21:15.141Z,65.47
2023-03-06T18:25:13.138Z,65.73
2023-03-06T18:29:13.413Z,65.94
2023-03-06T18:33:13.232Z,66.19
2023-03-06T18:37:13.272Z,66.46
2023-03-06T18:41:13.610Z,66.49
2023-03-06T18:45:13.416Z,66.92
2023-03-06T18:53:13.313Z,67.01
2023-03-06T18:57:13.189Z,67.14
2023-03-06T19:01:13.673Z,67.25
2023-03-06T19:05:13.242Z,67.20
2023-03-06T19:09:13.343Z,67.19
2023-03-06T19:13:13.535Z,67.13
2023-03-06T19:17:13.508Z,67.30
2023-03-06T19:21:15.585Z,67.36
2023-03-06T19:25:13.653Z,67.50
2023-03-06T19:29:13.446Z,67.60
2023-03-06T19:33:14.541Z,67.71
2023-03-06T19:37:13.379Z,67.83
2023-03-06T19:41:14.459Z,68.03
2023-03-06T19:45:13.547Z,68.27
2023-03-06T19:49:16.995Z,68.37
2023-03-06T19:53:14.882Z,68.65
2023-03-06T19:57:13.506Z,68.79
2023-03-06T20:01:15.968Z,68.83
2023-03-06T20:05:13.525Z,68.89
2023-03-06T20:09:13.430Z,68.96
2023-03-06T20:13:13.459Z,68.92
2023-03-06T20:17:13.530Z,68.76
2023-03-06T20:21:14.582Z,68.67
2023-03-06T20:25:13.650Z,68.63
2023-03-06T20:29:14.177Z,68.59
2023-03-06T20:33:14.360Z,68.54
2023-03-06T20:37:13.718Z,68.42
2023-03-06T20:41:14.282Z,68.38
2023-03-06T20:45:14.573Z,68.30
2023-03-06T20:49:14.110Z,68.24
2023-03-06T20:53:13.673Z,68.20
2023-03-06T20:57:13.552Z,68.14
2023-03-06T21:01:17.763Z,68.01
2023-03-06T21:05:13.756Z,68.01
2023-03-06T21:09:15.126Z,68.18
2023-03-06T21:13:13.937Z,68.43
2023-03-06T21:17:14.007Z,68.66
2023-03-06T21:21:15.688Z,68.78
2023-03-06T21:25:13.949Z,68.93
2023-03-06T21:29:13.811Z,68.93
2023-03-06T21:33:15.143Z,69.38
2023-03-06T21:37:13.788Z,69.51
2023-03-06T21:41:16.022Z,69.77
2023-03-06T21:45:13.789Z,69.88
2023-03-06T21:49:13.768Z,70.09
2023-03-06T21:53:13.803Z,70.15
2023-03-06T21:57:13.881Z,70.35
2023-03-06T22:01:17.133Z,70.51
2023-03-06T22:05:13.886Z,70.59
2023-03-06T22:09:15.183Z,70.58
2023-03-06T22:13:13.966Z,70.89
2023-03-06T22:17:13.806Z,71.21
2023-03-06T22:21:16.912Z,71.42
2023-03-06T22:25:13.894Z,72.01
2023-03-06T22:29:13.902Z,72.16
2023-03-06T22:33:13.867Z,72.35
2023-03-06T22:37:14.020Z,72.25
2023-03-06T22:41:16.495Z,72.28
2023-03-06T22:45:14.329Z,72.22
2023-03-06T22:49:15.822Z,72.01
2023-03-06T22:53:13.995Z,72.04
2023-03-06T22:57:13.853Z,71.98
2023-03-06T23:01:16.431Z,71.85
2023-03-06T23:05:14.307Z,71.71
2023-03-06T23:09:16.274Z,71.72
2023-03-06T23:13:14.097Z,71.76
2023-03-06T23:17:14.086Z,71.79
2023-03-06T23:25:14.112Z,71.52
2023-03-06T23:29:13.954Z,71.56
2023-03-06T23:33:14.146Z,71.41
2023-03-06T23:37:14.073Z,71.34
2023-03-06T23:41:17.075Z,71.20
2023-03-06T23:45:14.097Z,70.83
2023-03-06T23:49:14.325Z,70.75
2023-03-06T23:53:14.780Z,70.65
2023-03-06T23:57:14.031Z,70.66
